Time;durP1;ratioP1;P1;durP2;ratioP2;P2;SDS_P1;SDS_P2;PMS_P1;PMS_P2;Temp;Humidity;BMP_temperature;BMP_pressure;BME280_temperature;BME280_humidity;BME280_pressure;Samples;Min_cycle;Max_cycle;Signal;HPM_P1;HPM_P2
2021/03/20 00:02:13;;;;;;;4.00;3.00;;;3.40;78.20;;;;;;5006140;28;20189;-79
2021/03/20 00:04:39;;;;;;;2.90;2.80;;;3.40;78.10;;;;;;4995732;28;20181;-78
2021/03/20 00:07:05;;;;;;;3.47;3.20;;;3.40;78.10;;;;;;4994951;28;20929;-78
2021/03/20 00:09:32;;;;;;;2.97;2.30;;;3.40;78.20;;;;;;5002775;28;20189;-79
2021/03/20 00:11:59;;;;;;;2.47;2.27;;;3.40;78.10;;;;;;4996471;28;20235;-79
2021/03/20 00:14:26;;;;;;;2.77;2.50;;;3.40;78.10;;;;;;5018651;28;20189;-78
2021/03/20 00:16:53;;;;;;;5.07;3.13;;;3.40;77.90;;;;;;4998692;28;20204;-78
2021/03/20 00:19:19;;;;;;;3.20;2.90;;;3.40;77.90;;;;;;4993729;28;20268;-78
2021/03/20 00:21:44;;;;;;;3.87;3.07;;;3.40;77.90;;;;;;4995716;28;20334;-79
2021/03/20 00:24:10;;;;;;;3.43;3.13;;;3.40;78.30;;;;;;5007152;28;20181;-78
2021/03/20 00:26:36;;;;;;;3.70;3.40;;;3.50;78.30;;;;;;5003601;28;20206;-78
2021/03/20 00:29:03;;;;;;;3.40;2.43;;;3.50;78.10;;;;;;4997031;28;20707;-78
2021/03/20 00:31:29;;;;;;;3.33;2.67;;;3.60;78.00;;;;;;4996943;28;20174;-78
2021/03/20 00:33:55;;;;;;;4.00;3.00;;;3.60;78.00;;;;;;5006036;28;20188;-78
2021/03/20 00:36:21;;;;;;;3.40;3.17;;;3.70;78.10;;;;;;4994565;28;20756;-78
2021/03/20 00:38:47;;;;;;;4.47;3.23;;;3.70;78.20;;;;;;5002963;28;20267;-78
2021/03/20 00:41:12;;;;;;;4.60;4.10;;;3.80;78.00;;;;;;5002250;28;20689;-77
2021/03/20 00:43:39;;;;;;;4.47;3.63;;;3.80;77.90;;;;;;4995310;28;20197;-78
2021/03/20 00:46:08;;;;;;;4.77;3.57;;;3.80;77.90;;;;;;5008556;28;20618;-77
2021/03/20 00:48:35;;;;;;;3.73;2.97;;;3.80;78.00;;;;;;5008680;28;20254;-78
2021/03/20 00:51:02;;;;;;;4.13;3.73;;;3.90;77.90;;;;;;4991719;28;20266;-77
2021/03/20 00:53:28;;;;;;;3.80;3.50;;;3.90;78.00;;;;;;4997857;28;20277;-78
2021/03/20 00:55:55;;;;;;;5.00;3.90;;;3.90;78.10;;;;;;5002107;28;20696;-78
2021/03/20 00:58:31;;;;;;;4.97;3.57;;;3.90;78.10;;;;;;5000404;28;20194;-78
2021/03/20 01:01:19;;;;;;;4.47;4.07;;;3.90;78.00;;;;;;4999053;28;20193;-79
2021/03/20 01:03:46;;;;;;;3.97;3.53;;;3.90;78.00;;;;;;5002913;28;20654;-77
2021/03/20 01:06:22;;;;;;;7.73;3.37;;;4.00;78.00;;;;;;4997553;28;20212;-77
2021/03/20 01:08:48;;;;;;;3.33;3.03;;;4.00;78.00;;;;;;5002146;28;20180;-78
2021/03/20 01:11:15;;;;;;;4.13;3.77;;;4.00;78.10;;;;;;4999594;28;20193;-78
2021/03/20 01:13:41;;;;;;;4.13;3.53;;;4.00;78.10;;;;;;4998397;28;20561;-77
2021/03/20 01:16:08;;;;;;;4.80;3.70;;;4.00;78.30;;;;;;4997403;28;20196;-78
2021/03/20 01:18:34;;;;;;;3.43;3.20;;;4.00;78.40;;;;;;4995953;28;20844;-78
2021/03/20 01:21:00;;;;;;;6.07;4.00;;;4.00;78.50;;;;;;5006548;28;20308;-76
2021/03/20 01:23:26;;;;;;;4.17;3.23;;;4.10;78.50;;;;;;5004653;28;20197;-77
2021/03/20 01:25:52;;;;;;;4.77;3.57;;;4.10;78.40;;;;;;4999797;28;20278;-78
2021/03/20 01:28:21;;;;;;;4.70;3.20;;;4.10;78.40;;;;;;4996317;28;20178;-77
2021/03/20 01:30:46;;;;;;;4.17;3.27;;;4.10;78.30;;;;;;5006397;28;20824;-78
2021/03/20 01:33:12;;;;;;;5.27;3.73;;;4.10;78.40;;;;;;5017731;28;20180;-77
2021/03/20 01:35:38;;;;;;;5.10;4.20;;;4.10;78.40;;;;;;5020053;28;20185;-78
2021/03/20 01:38:04;;;;;;;5.03;3.83;;;4.10;78.50;;;;;;4995008;28;20185;-78
2021/03/20 01:40:55;;;;;;;4.90;3.70;;;4.10;78.60;;;;;;4999078;28;20693;-78
2021/03/20 01:43:24;;;;;;;6.83;4.23;;;4.10;78.70;;;;;;5000004;28;20177;-78
2021/03/20 01:45:50;;;;;;;4.67;4.20;;;4.10;78.90;;;;;;5009033;28;20200;-78
2021/03/20 01:48:25;;;;;;;5.07;4.10;;;4.10;79.00;;;;;;4999656;28;20874;-78
2021/03/20 01:51:03;;;;;;;7.43;3.93;;;4.10;79.20;;;;;;5035761;28;20685;-76
2021/03/20 01:53:43;;;;;;;6.37;4.70;;;4.10;79.20;;;;;;4998009;28;20189;-78
2021/03/20 01:56:21;;;;;;;5.43;4.10;;;4.10;79.10;;;;;;5005399;28;20260;-78
2021/03/20 01:58:48;;;;;;;9.87;5.27;;;4.10;79.20;;;;;;4993361;28;20658;-77
2021/03/20 02:01:26;;;;;;;8.50;5.53;;;4.10;79.20;;;;;;5007034;28;20182;-78
2021/03/20 02:03:53;;;;;;;8.60;5.07;;;4.10;79.20;;;;;;5009199;28;20192;-77
2021/03/20 02:06:20;;;;;;;7.47;4.67;;;4.10;79.70;;;;;;5011357;28;20691;-77
2021/03/20 02:08:48;;;;;;;8.47;5.60;;;4.10;79.60;;;;;;4995317;28;20245;-77
2021/03/20 02:11:29;;;;;;;8.83;4.70;;;4.10;79.70;;;;;;5021240;28;20186;-78
2021/03/20 02:14:08;;;;;;;8.00;4.93;;;4.10;79.80;;;;;;4996345;28;20177;-78
2021/03/20 02:16:46;;;;;;;4.47;4.00;;;4.10;79.90;;;;;;4999412;28;20200;-78
2021/03/20 02:19:41;;;;;;;6.47;5.27;;;4.10;80.00;;;;;;5002812;28;20232;-78
2021/03/20 02:22:15;;;;;;;7.37;4.87;;;4.10;80.20;;;;;;5002469;28;20653;-79
2021/03/20 02:24:59;;;;;;;6.57;4.80;;;4.10;80.30;;;;;;5007980;28;20193;-79
2021/03/20 02:28:03;;;;;;;5.60;5.03;;;4.20;80.50;;;;;;5006849;28;20193;-77
2021/03/20 02:30:37;;;;;;;9.37;5.03;;;4.20;80.50;;;;;;4998476;28;20185;-79
2021/03/20 02:33:17;;;;;;;6.57;4.57;;;4.20;80.80;;;;;;4994631;28;20193;-78
2021/03/20 02:36:08;;;;;;;4.90;4.33;;;4.20;80.60;;;;;;5007687;28;20185;-79
2021/03/20 02:39:03;;;;;;;6.67;5.53;;;4.20;80.90;;;;;;5005427;28;20181;-78
2021/03/20 02:41:49;;;;;;;8.97;5.33;;;4.20;81.00;;;;;;5003011;28;21047;-78
2021/03/20 02:44:32;;;;;;;5.80;5.27;;;4.20;81.00;;;;;;5006802;28;20304;-78
2021/03/20 02:47:04;;;;;;;4.53;3.97;;;4.20;81.00;;;;;;5004763;28;20259;-78
2021/03/20 02:49:46;;;;;;;6.50;4.33;;;4.10;81.20;;;;;;5006458;28;20181;-77
2021/03/20 02:52:27;;;;;;;7.00;4.23;;;4.10;81.30;;;;;;4996737;28;20232;-79
2021/03/20 02:55:08;;;;;;;5.43;4.17;;;4.10;81.20;;;;;;5031853;28;20259;-79
2021/03/20 02:57:52;;;;;;;4.60;3.87;;;4.10;81.10;;;;;;5002877;28;20176;-79
2021/03/20 03:00:35;;;;;;;6.03;4.47;;;4.00;81.20;;;;;;4993825;28;20189;-79
2021/03/20 03:03:02;;;;;;;6.13;4.13;;;4.00;81.50;;;;;;5006666;28;20244;-79
2021/03/20 03:05:44;;;;;;;6.67;4.07;;;4.00;81.60;;;;;;5000223;28;20220;-78
2021/03/20 03:08:25;;;;;;;7.33;4.33;;;4.00;81.60;;;;;;5003763;28;20186;-78
2021/03/20 03:10:56;;;;;;;7.60;4.87;;;4.00;81.60;;;;;;4999888;28;20212;-78
2021/03/20 03:13:27;;;;;;;7.17;4.53;;;4.00;81.80;;;;;;4998237;28;20193;-77
2021/03/20 03:16:12;;;;;;;5.63;4.40;;;4.00;81.80;;;;;;5010631;28;20189;-78
2021/03/20 03:18:55;;;;;;;3.80;3.50;;;4.00;81.70;;;;;;5011809;28;20185;-77
2021/03/20 03:21:23;;;;;;;6.20;4.33;;;4.00;81.70;;;;;;5001181;28;20185;-77
2021/03/20 03:23:48;;;;;;;5.20;4.27;;;4.10;81.70;;;;;;5002990;28;20185;-77
2021/03/20 03:26:25;;;;;;;6.00;4.23;;;4.10;81.70;;;;;;5001353;28;20205;-78
2021/03/20 03:29:00;;;;;;;4.97;3.80;;;4.10;81.40;;;;;;4996621;28;20176;-77
2021/03/20 03:31:34;;;;;;;4.70;3.87;;;4.10;81.30;;;;;;5003198;28;20616;-77
2021/03/20 03:34:04;;;;;;;6.80;4.47;;;4.10;81.30;;;;;;4995294;28;20185;-76
2021/03/20 03:36:37;;;;;;;5.00;4.03;;;4.10;81.30;;;;;;5001325;28;20209;-76
2021/03/20 03:39:15;;;;;;;4.07;3.70;;;4.10;81.20;;;;;;4994483;28;20293;-78
2021/03/20 03:41:41;;;;;;;5.27;3.93;;;4.10;81.30;;;;;;5002436;28;20194;-77
2021/03/20 03:44:08;;;;;;;4.30;3.90;;;4.10;81.30;;;;;;4999562;28;20252;-76
2021/03/20 03:46:41;;;;;;;5.83;4.20;;;4.10;81.20;;;;;;5007171;28;20291;-77
2021/03/20 03:49:08;;;;;;;5.90;4.30;;;4.20;81.10;;;;;;5003549;28;20192;-77
2021/03/20 03:51:34;;;;;;;3.77;3.43;;;4.20;81.00;;;;;;4997518;28;20248;-77
2021/03/20 03:54:01;;;;;;;6.40;3.77;;;4.20;81.10;;;;;;5001153;28;20661;-77
2021/03/20 03:56:52;;;;;;;6.13;4.47;;;4.20;81.10;;;;;;5003691;28;20239;-76
2021/03/20 04:00:01;;;;;;;4.93;4.40;;;4.20;81.10;;;;;;5000154;28;20688;-77
2021/03/20 04:02:38;;;;;;;5.30;4.33;;;4.20;81.30;;;;;;4930445;29;20309;-77
2021/03/20 04:05:24;;;;;;;5.07;4.07;;;4.20;81.30;;;;;;4935153;29;20650;-76
2021/03/20 04:07:49;;;;;;;5.93;4.60;;;4.20;81.30;;;;;;4933540;29;20735;-76
2021/03/20 04:10:40;;;;;;;5.20;4.37;;;4.20;81.30;;;;;;4934329;29;20188;-77
2021/03/20 04:13:30;;;;;;;7.63;5.13;;;4.20;81.20;;;;;;4933009;29;20200;-76
2021/03/20 04:16:06;;;;;;;7.00;4.90;;;4.20;81.40;;;;;;4918468;29;20277;-76
2021/03/20 04:19:00;;;;;;;5.10;4.60;;;4.20;81.60;;;;;;4931478;29;20182;-77
2021/03/20 04:21:47;;;;;;;9.43;5.70;;;4.20;81.70;;;;;;4936921;29;20772;-78
2021/03/20 04:24:31;;;;;;;6.47;5.27;;;4.20;82.20;;;;;;4930868;29;20270;-77
2021/03/20 04:27:08;;;;;;;6.30;5.27;;;4.10;82.10;;;;;;4942084;29;20227;-77
2021/03/20 04:30:03;;;;;;;8.43;6.07;;;4.10;82.00;;;;;;4921240;29;20183;-77
2021/03/20 04:32:50;;;;;;;8.17;5.00;;;4.10;82.20;;;;;;4932238;29;20214;-78
2021/03/20 04:35:28;;;;;;;7.67;4.70;;;4.10;82.30;;;;;;4929040;29;20198;-76
2021/03/20 04:37:55;;;;;;;6.03;5.00;;;4.10;82.30;;;;;;4945597;28;20206;-77
2021/03/20 04:40:36;;;;;;;9.27;5.70;;;4.10;82.60;;;;;;4990339;28;20192;-77
2021/03/20 04:43:03;;;;;;;6.87;4.00;;;4.00;82.80;;;;;;5002335;28;20183;-78
2021/03/20 04:45:33;;;;;;;9.93;4.83;;;4.10;82.80;;;;;;4997900;28;20617;-77
2021/03/20 04:48:27;;;;;;;7.73;4.23;;;4.10;82.60;;;;;;5005415;28;20181;-76
2021/03/20 04:51:00;;;;;;;5.57;4.10;;;4.10;82.60;;;;;;4996816;28;20561;-77
2021/03/20 04:53:27;;;;;;;7.93;4.40;;;4.10;82.90;;;;;;5000782;28;20196;-77
2021/03/20 04:56:06;;;;;;;8.80;5.00;;;4.10;82.90;;;;;;5004855;28;20206;-78
2021/03/20 04:58:41;;;;;;;6.43;4.23;;;4.10;83.20;;;;;;5005607;28;20199;-77
2021/03/20 05:01:38;;;;;;;5.67;4.60;;;4.00;83.20;;;;;;5006600;28;20200;-77
2021/03/20 05:04:09;;;;;;;5.77;4.47;;;4.00;83.00;;;;;;4964377;28;20252;-77
2021/03/20 05:06:36;;;;;;;5.80;4.47;;;4.10;83.10;;;;;;4970356;28;20293;-76
2021/03/20 05:09:06;;;;;;;5.27;4.27;;;4.10;83.20;;;;;;4970585;28;20206;-78
2021/03/20 05:11:49;;;;;;;9.47;4.43;;;4.10;83.20;;;;;;4949622;29;20269;-78
2021/03/20 05:14:36;;;;;;;5.73;4.70;;;4.10;82.90;;;;;;4954512;28;20679;-78
2021/03/20 05:17:06;;;;;;;5.73;4.20;;;4.20;82.90;;;;;;4970972;28;20201;-78
2021/03/20 05:19:32;;;;;;;6.53;4.63;;;4.20;83.20;;;;;;4971067;28;20199;-79
2021/03/20 05:21:57;;;;;;;5.73;4.10;;;4.20;83.10;;;;;;4974951;28;20194;-78
2021/03/20 05:24:32;;;;;;;6.67;4.83;;;4.30;83.00;;;;;;4952418;28;20190;-77
2021/03/20 05:27:00;;;;;;;7.93;5.10;;;4.30;82.80;;;;;;4950807;29;20302;-78
2021/03/20 05:29:27;;;;;;;5.90;3.97;;;4.30;82.80;;;;;;4952877;28;20217;-78
2021/03/20 05:31:53;;;;;;;4.97;4.20;;;4.30;82.90;;;;;;4963945;28;20199;-78
2021/03/20 05:34:34;;;;;;;7.80;4.90;;;4.30;82.90;;;;;;4948610;28;20241;-78
2021/03/20 05:37:00;;;;;;;5.07;4.27;;;4.40;82.90;;;;;;4970067;28;20182;-78
2021/03/20 05:39:26;;;;;;;6.87;4.80;;;4.40;82.90;;;;;;4954544;28;20982;-78
2021/03/20 05:42:13;;;;;;;9.87;4.93;;;4.40;82.90;;;;;;4995877;28;20205;-77
2021/03/20 05:44:44;;;;;;;7.67;5.20;;;4.40;82.70;;;;;;5005494;28;20559;-78
2021/03/20 05:47:23;;;;;;;8.87;6.00;;;4.40;82.90;;;;;;4999613;28;20351;-78
2021/03/20 05:50:06;;;;;;;5.13;4.57;;;4.50;82.90;;;;;;5005137;28;20189;-77
2021/03/20 05:52:38;;;;;;;9.50;5.03;;;4.50;82.90;;;;;;5003765;28;20978;-78
2021/03/20 05:55:31;;;;;;;6.37;5.50;;;4.60;82.60;;;;;;4999515;28;20657;-77
2021/03/20 05:58:30;;;;;;;9.63;5.30;;;4.60;82.50;;;;;;5009920;28;20646;-78
2021/03/20 06:01:05;;;;;;;4.80;4.27;;;4.60;82.70;;;;;;5008001;28;21151;-78
2021/03/20 06:03:40;;;;;;;5.33;4.80;;;4.50;82.60;;;;;;5002627;28;20172;-78
2021/03/20 06:06:53;;;;;;;10.10;4.13;;;4.60;82.60;;;;;;5002898;28;20204;-78
2021/03/20 06:10:01;;;;;;;5.53;4.23;;;4.60;82.40;;;;;;4976740;28;20296;-78
2021/03/20 06:12:55;;;;;;;7.40;5.80;;;4.60;82.50;;;;;;4982133;28;20336;-78
2021/03/20 06:15:51;;;;;;;10.73;6.00;;;4.60;82.50;;;;;;4980017;28;20718;-78
2021/03/20 06:18:38;;;;;;;10.13;6.17;;;4.70;82.40;;;;;;4910071;29;20195;-79
2021/03/20 06:21:28;;;;;;;8.00;5.63;;;4.70;82.10;;;;;;4931035;29;20278;-77
2021/03/20 06:24:23;;;;;;;7.10;5.50;;;4.80;82.30;;;;;;4930969;29;20239;-78
2021/03/20 06:26:51;;;;;;;10.07;5.93;;;4.80;82.20;;;;;;4930280;29;20223;-78
2021/03/20 06:29:32;;;;;;;11.17;6.77;;;4.80;82.40;;;;;;4918406;29;20657;-78
2021/03/20 06:32:20;;;;;;;12.77;7.27;;;4.90;82.40;;;;;;4929947;29;20194;-78
2021/03/20 06:35:15;;;;;;;12.00;6.37;;;4.90;82.30;;;;;;4930030;29;20187;-78
2021/03/20 06:37:47;;;;;;;12.37;6.57;;;5.00;82.40;;;;;;4882186;29;20210;-78
2021/03/20 06:40:18;;;;;;;10.53;7.37;;;5.00;82.50;;;;;;4879766;29;20268;-78
2021/03/20 06:42:45;;;;;;;10.27;6.47;;;5.10;82.40;;;;;;4875595;29;20243;-77
2021/03/20 06:45:21;;;;;;;9.23;6.30;;;5.10;82.50;;;;;;4869329;29;20274;-78
2021/03/20 06:47:53;;;;;;;8.27;5.63;;;5.20;82.40;;;;;;4888813;29;20204;-78
2021/03/20 06:50:21;;;;;;;9.27;6.97;;;5.20;81.90;;;;;;4873939;29;20197;-78
2021/03/20 06:52:51;;;;;;;11.17;6.80;;;5.30;82.00;;;;;;4874000;29;20242;-77
2021/03/20 06:55:32;;;;;;;10.93;7.00;;;5.40;81.60;;;;;;4895706;29;20638;-77
2021/03/20 06:58:02;;;;;;;7.97;5.87;;;5.50;81.70;;;;;;4925791;29;20890;-75
2021/03/20 07:00:31;;;;;;;10.97;6.67;;;5.60;81.60;;;;;;4927164;29;20386;-74
2021/03/20 07:03:33;;;;;;;12.63;7.00;;;5.60;81.10;;;;;;4939678;28;20194;-74
2021/03/20 07:06:27;;;;;;;9.83;6.73;;;5.70;81.20;;;;;;4938389;29;20207;-75
2021/03/20 07:08:59;;;;;;;7.57;6.40;;;5.80;81.10;;;;;;4925988;29;20244;-75
2021/03/20 07:11:42;;;;;;;10.67;6.87;;;5.80;80.90;;;;;;4923319;29;20187;-81
2021/03/20 07:14:11;;;;;;;11.77;7.53;;;5.80;80.90;;;;;;4952523;28;20225;-77
2021/03/20 07:17:00;;;;;;;9.37;7.13;;;5.90;80.80;;;;;;5008512;28;20183;-78
2021/03/20 07:19:26;;;;;;;9.60;7.00;;;5.90;80.70;;;;;;5001494;28;20193;-77
2021/03/20 07:21:57;;;;;;;10.30;7.40;;;5.90;80.70;;;;;;5004596;28;20191;-77
2021/03/20 07:24:44;;;;;;;13.63;7.87;;;5.90;81.10;;;;;;5000767;28;20293;-75
2021/03/20 07:27:13;;;;;;;11.63;8.47;;;5.90;81.30;;;;;;5004994;28;20209;-76
2021/03/20 07:29:54;;;;;;;14.90;8.60;;;5.80;81.60;;;;;;5020780;28;20177;-76
2021/03/20 07:32:36;;;;;;;9.60;6.90;;;5.70;81.60;;;;;;5004882;28;20666;-77
2021/03/20 07:35:20;;;;;;;13.50;7.37;;;5.60;82.30;;;;;;5033052;28;21062;-76
2021/03/20 07:37:48;;;;;;;10.80;7.93;;;5.50;83.20;;;;;;5003017;28;20181;-78
2021/03/20 07:40:30;;;;;;;9.97;7.10;;;5.50;83.10;;;;;;5000106;28;20620;-77
2021/03/20 07:43:21;;;;;;;12.53;8.17;;;5.50;83.10;;;;;;5005096;28;20188;-77
2021/03/20 07:45:49;;;;;;;8.93;7.03;;;5.40;83.40;;;;;;5003989;28;20733;-76
2021/03/20 07:48:35;;;;;;;13.33;6.57;;;5.40;83.00;;;;;;5004530;28;20276;-78
2021/03/20 07:51:05;;;;;;;10.60;7.37;;;5.40;83.50;;;;;;5006595;28;20274;-77
2021/03/20 07:53:39;;;;;;;9.53;6.83;;;5.40;84.50;;;;;;5006319;28;20200;-77
2021/03/20 07:56:36;;;;;;;10.93;7.63;;;5.40;84.70;;;;;;5003671;28;20181;-77
2021/03/20 07:59:19;;;;;;;16.07;7.30;;;5.40;84.90;;;;;;4999937;28;20197;-76
2021/03/20 08:02:13;;;;;;;9.33;6.90;;;5.40;84.10;;;;;;4998275;28;20224;-78
2021/03/20 08:05:21;;;;;;;17.73;8.60;;;5.50;84.20;;;;;;4963923;28;20186;-78
2021/03/20 08:07:49;;;;;;;7.77;5.80;;;5.60;83.80;;;;;;4962910;28;20272;-78
2021/03/20 08:10:22;;;;;;;10.70;6.73;;;5.70;83.40;;;;;;4983555;28;20250;-77
2021/03/20 08:12:55;;;;;;;8.40;6.73;;;5.50;83.30;;;;;;4968693;28;20887;-78
2021/03/20 08:15:28;;;;;;;10.37;6.63;;;5.40;83.50;;;;;;4963873;28;20458;-79
2021/03/20 08:17:56;;;;;;;11.90;7.10;;;5.40;83.70;;;;;;4969083;28;20604;-79
2021/03/20 08:20:22;;;;;;;11.47;7.23;;;5.50;83.70;;;;;;4967278;28;20196;-79
2021/03/20 08:23:02;;;;;;;10.10;6.87;;;5.60;84.00;;;;;;4984820;28;20216;-78
2021/03/20 08:25:54;;;;;;;10.63;8.10;;;5.70;83.80;;;;;;4965949;28;20192;-78
2021/03/20 08:28:56;;;;;;;15.00;7.60;;;5.80;83.60;;;;;;4967499;28;20186;-78
2021/03/20 08:32:00;;;;;;;8.70;6.77;;;5.80;83.40;;;;;;4967629;28;20184;-78
2021/03/20 08:34:39;;;;;;;13.03;8.00;;;5.90;83.20;;;;;;4985878;28;20272;-82
2021/03/20 08:37:16;;;;;;;8.50;6.53;;;6.10;83.50;;;;;;4970637;28;21083;-78
2021/03/20 08:40:15;;;;;;;13.57;7.33;;;6.20;83.00;;;;;;4969574;28;20240;-78
2021/03/20 08:43:00;;;;;;;10.03;6.87;;;6.30;83.10;;;;;;5000217;28;20243;-78
2021/03/20 08:45:25;;;;;;;12.50;7.67;;;6.30;83.10;;;;;;4997716;28;20188;-77
2021/03/20 08:47:57;;;;;;;15.07;8.70;;;6.40;82.90;;;;;;5000467;28;20681;-78
2021/03/20 08:50:43;;;;;;;13.80;8.93;;;6.50;82.60;;;;;;4997882;28;20280;-77
2021/03/20 08:53:36;;;;;;;9.83;7.40;;;6.50;82.20;;;;;;4947315;29;20210;-81
2021/03/20 08:56:08;;;;;;;9.07;6.07;;;6.60;82.40;;;;;;4938273;28;20202;-72
2021/03/20 08:58:51;;;;;;;11.23;6.47;;;6.60;82.40;;;;;;4943869;28;20306;-72
2021/03/20 09:01:36;;;;;;;6.77;5.97;;;6.70;81.80;;;;;;4943242;29;20719;-72
2021/03/20 09:04:07;;;;;;;8.20;6.50;;;6.90;81.70;;;;;;4942083;29;20282;-72
2021/03/20 09:06:43;;;;;;;10.43;7.33;;;7.00;81.80;;;;;;4943188;29;20207;-72
2021/03/20 09:09:39;;;;;;;8.23;6.50;;;7.10;81.40;;;;;;4940902;29;20237;-73
2021/03/20 09:12:16;;;;;;;9.43;6.23;;;7.20;80.90;;;;;;4939588;29;20282;-72
2021/03/20 09:14:44;;;;;;;7.97;5.73;;;7.20;80.90;;;;;;4942471;29;20269;-72
2021/03/20 09:17:39;;;;;;;9.13;6.13;;;7.30;80.90;;;;;;4943534;28;20203;-76
2021/03/20 09:20:42;;;;;;;8.50;6.33;;;7.40;80.40;;;;;;4944522;29;20198;-77
2021/03/20 09:23:34;;;;;;;7.60;6.00;;;7.50;80.20;;;;;;4945689;29;20201;-81
2021/03/20 09:26:03;;;;;;;9.20;6.50;;;7.50;79.50;;;;;;4942949;29;20222;-80
2021/03/20 09:28:50;;;;;;;8.13;6.03;;;7.40;80.00;;;;;;4934919;29;20194;-77
2021/03/20 09:31:28;;;;;;;8.30;6.13;;;7.40;80.50;;;;;;4997289;28;20227;-75
2021/03/20 09:33:55;;;;;;;7.43;6.37;;;7.50;81.20;;;;;;5006321;28;20184;-78
2021/03/20 09:36:20;;;;;;;8.03;5.93;;;7.80;81.40;;;;;;5003917;28;20190;-78
2021/03/20 09:38:51;;;;;;;6.63;5.37;;;8.00;81.30;;;;;;5003275;28;20194;-78
2021/03/20 09:41:17;;;;;;;9.17;6.67;;;8.20;79.70;;;;;;5005008;28;20217;-77
2021/03/20 09:44:06;;;;;;;7.47;6.13;;;8.20;79.40;;;;;;5003288;28;20193;-78
2021/03/20 09:46:38;;;;;;;9.87;6.97;;;8.10;79.50;;;;;;5009660;28;20251;-78
2021/03/20 09:49:06;;;;;;;9.03;6.87;;;8.00;80.00;;;;;;5003860;28;20239;-78
2021/03/20 09:51:53;;;;;;;10.90;7.33;;;7.70;80.00;;;;;;5004399;28;20192;-77
2021/03/20 09:54:22;;;;;;;10.57;6.87;;;7.70;81.50;;;;;;5002932;28;20204;-76
2021/03/20 09:57:07;;;;;;;10.97;6.13;;;7.70;81.10;;;;;;5006667;28;20189;-78
2021/03/20 09:59:35;;;;;;;8.07;6.80;;;7.50;81.70;;;;;;4997572;28;20197;-77
2021/03/20 10:02:11;;;;;;;9.13;6.87;;;7.30;82.50;;;;;;4996287;28;20199;-79
2021/03/20 10:04:53;;;;;;;7.20;5.53;;;7.30;83.10;;;;;;4994665;28;20801;-77
2021/03/20 10:07:21;;;;;;;8.23;5.83;;;7.40;83.60;;;;;;4999497;28;20309;-78
2021/03/20 10:10:15;;;;;;;7.50;5.63;;;7.50;81.90;;;;;;5007396;28;20221;-79
2021/03/20 10:12:44;;;;;;;8.73;5.77;;;7.40;82.10;;;;;;4998052;28;20260;-78
2021/03/20 10:15:12;;;;;;;5.87;5.23;;;7.40;82.30;;;;;;5005507;28;20185;-78
2021/03/20 10:18:01;;;;;;;8.17;5.90;;;7.40;82.30;;;;;;5006109;28;20203;-77
2021/03/20 10:20:50;;;;;;;7.83;5.53;;;7.50;82.70;;;;;;5003706;28;20204;-78
2021/03/20 10:23:40;;;;;;;7.83;5.77;;;7.50;81.80;;;;;;5003616;28;20203;-78
2021/03/20 10:26:22;;;;;;;6.93;5.17;;;7.50;82.20;;;;;;5007204;28;20255;-77
2021/03/20 10:28:54;;;;;;;5.20;4.70;;;7.70;82.50;;;;;;5002698;28;20673;-78
2021/03/20 10:31:22;;;;;;;7.73;5.87;;;7.90;81.70;;;;;;5032023;28;20181;-78
2021/03/20 10:33:50;;;;;;;6.73;5.33;;;8.00;80.20;;;;;;5003881;28;20765;-77
2021/03/20 10:36:16;;;;;;;6.27;5.13;;;8.10;80.80;;;;;;4999607;28;20212;-78
2021/03/20 10:38:50;;;;;;;6.73;5.47;;;8.20;80.10;;;;;;5001457;28;21049;-79
2021/03/20 10:41:51;;;;;;;6.90;5.20;;;8.30;80.20;;;;;;5004296;28;20185;-78
2021/03/20 10:44:26;;;;;;;5.73;5.13;;;8.40;80.10;;;;;;4974253;28;20788;-77
2021/03/20 10:47:21;;;;;;;9.17;6.33;;;8.50;80.00;;;;;;4970864;28;20227;-79
2021/03/20 10:49:54;;;;;;;7.20;5.73;;;8.40;79.50;;;;;;4985979;28;20197;-79
2021/03/20 10:52:26;;;;;;;5.97;5.37;;;8.40;79.70;;;;;;5003389;28;20181;-77
2021/03/20 10:54:55;;;;;;;6.70;4.93;;;8.30;79.00;;;;;;4969078;28;20198;-77
2021/03/20 10:57:24;;;;;;;6.27;4.77;;;8.10;79.30;;;;;;4987735;28;20264;-77
2021/03/20 10:59:51;;;;;;;5.03;4.73;;;7.90;80.10;;;;;;5000778;28;20194;-79
2021/03/20 11:02:28;;;;;;;5.17;4.67;;;7.80;80.80;;;;;;4981670;28;20186;-77
2021/03/20 11:05:14;;;;;;;5.53;4.70;;;7.80;81.10;;;;;;4983104;28;20653;-77
2021/03/20 11:07:54;;;;;;;4.90;4.60;;;7.90;81.40;;;;;;4971633;28;20222;-78
2021/03/20 11:10:37;;;;;;;4.67;4.20;;;8.10;81.20;;;;;;4987343;28;20184;-79
2021/03/20 11:13:16;;;;;;;4.77;4.30;;;8.20;80.50;;;;;;4969353;28;20198;-78
2021/03/20 11:15:46;;;;;;;4.83;4.40;;;8.40;80.60;;;;;;4973355;28;21012;-78
2021/03/20 11:18:29;;;;;;;5.83;4.60;;;8.50;80.30;;;;;;4980732;28;20194;-78
2021/03/20 11:20:55;;;;;;;6.90;4.17;;;8.60;79.80;;;;;;5003178;28;20193;-78
2021/03/20 11:23:36;;;;;;;5.07;4.10;;;8.50;79.30;;;;;;5004465;28;20199;-78
2021/03/20 11:26:22;;;;;;;4.17;3.87;;;8.50;79.70;;;;;;5040278;28;20201;-79
2021/03/20 11:28:49;;;;;;;4.60;4.00;;;8.30;79.20;;;;;;5007872;28;20193;-78
2021/03/20 11:31:17;;;;;;;4.17;3.87;;;8.00;80.00;;;;;;5006393;28;20183;-77
2021/03/20 11:33:44;;;;;;;4.63;4.23;;;7.80;79.90;;;;;;5003236;28;20188;-76
2021/03/20 11:36:17;;;;;;;5.33;4.83;;;7.40;81.30;;;;;;5004859;28;20184;-77
2021/03/20 11:38:43;;;;;;;4.37;3.97;;;7.00;82.50;;;;;;5004553;28;20177;-76
2021/03/20 11:41:09;;;;;;;5.23;4.53;;;6.70;83.20;;;;;;5006802;28;20185;-78
2021/03/20 11:43:45;;;;;;;4.43;4.00;;;6.40;84.30;;;;;;5004979;28;21078;-79
2021/03/20 11:46:19;;;;;;;4.60;4.20;;;6.00;85.30;;;;;;5001519;28;20297;-79
2021/03/20 11:48:59;;;;;;;4.80;4.37;;;5.90;86.40;;;;;;4996667;28;20250;-79
2021/03/20 11:51:24;;;;;;;4.30;4.00;;;5.80;87.20;;;;;;5003929;28;20189;-74
2021/03/20 11:53:54;;;;;;;6.00;4.50;;;5.80;87.50;;;;;;4997833;28;20199;-74
2021/03/20 11:56:25;;;;;;;5.20;4.50;;;5.70;87.80;;;;;;5000969;28;20310;-74
2021/03/20 11:58:59;;;;;;;5.37;4.67;;;5.70;88.30;;;;;;5003382;28;20193;-77
2021/03/20 12:01:34;;;;;;;5.97;5.07;;;5.80;88.30;;;;;;4999684;28;20305;-78
2021/03/20 12:04:46;;;;;;;4.33;3.93;;;5.90;88.20;;;;;;5001154;28;20652;-77
2021/03/20 12:07:32;;;;;;;4.10;3.77;;;5.90;87.80;;;;;;4966887;28;20304;-78
2021/03/20 12:10:40;;;;;;;4.53;4.20;;;5.80;88.00;;;;;;4964838;28;20390;-75
2021/03/20 12:13:48;;;;;;;;;;;;;;;;;;;;;
2021/03/20 12:17:05;;;;;;;;;;;;;;;;;;;;;
2021/03/20 12:19:32;;;;;;;3.90;3.23;;;5.90;87.90;;;;;;4909362;29;20196;-79
2021/03/20 12:22:16;;;;;;;4.73;3.67;;;5.70;87.60;;;;;;4897500;29;20239;-80
2021/03/20 12:24:43;;;;;;;3.87;3.43;;;5.50;88.80;;;;;;4900884;29;20203;-81
2021/03/20 12:27:37;;;;;;;4.57;3.87;;;5.50;89.80;;;;;;4900366;29;20241;-81
2021/03/20 12:30:27;;;;;;;3.33;3.13;;;5.50;90.10;;;;;;4916420;29;20227;-83
2021/03/20 12:32:55;;;;;;;3.87;3.47;;;5.50;90.10;;;;;;4903263;29;20212;-81
2021/03/20 12:35:30;;;;;;;3.17;2.97;;;5.50;89.70;;;;;;4897648;29;20215;-82
2021/03/20 12:38:11;;;;;;;2.80;2.60;;;5.50;89.70;;;;;;4911161;29;20234;-80
2021/03/20 12:40:39;;;;;;;4.60;3.40;;;5.40;90.10;;;;;;4894045;29;20180;-80
2021/03/20 12:43:06;;;;;;;3.17;2.93;;;5.30;90.40;;;;;;4901372;29;20227;-82
2021/03/20 12:45:37;;;;;;;3.53;3.10;;;5.10;90.00;;;;;;4911727;29;20188;-82
2021/03/20 12:48:03;;;;;;;2.50;2.37;;;4.90;90.80;;;;;;4944430;29;20195;-83
2021/03/20 12:50:28;;;;;;;3.80;3.53;;;4.90;91.90;;;;;;4972029;28;20185;-80
2021/03/20 12:52:54;;;;;;;3.80;3.50;;;4.80;92.50;;;;;;5000419;28;20704;-79
2021/03/20 12:55:20;;;;;;;3.40;3.10;;;4.80;92.60;;;;;;5003296;28;20192;-79
2021/03/20 12:57:45;;;;;;;4.20;3.60;;;4.80;92.10;;;;;;5013801;28;20176;-79
2021/03/20 13:00:19;;;;;;;3.27;2.97;;;4.90;93.00;;;;;;5002723;28;20348;-79
2021/03/20 13:02:44;;;;;;;4.73;3.63;;;4.90;93.30;;;;;;5004046;28;20185;-79
2021/03/20 13:05:32;;;;;;;4.17;3.80;;;4.80;92.20;;;;;;5002393;28;20181;-79
2021/03/20 13:07:58;;;;;;;3.30;3.10;;;4.80;92.80;;;;;;4990985;28;20217;-79
2021/03/20 13:10:24;;;;;;;4.03;3.30;;;4.80;93.20;;;;;;5007660;28;20181;-78
2021/03/20 13:12:50;;;;;;;4.00;3.60;;;4.70;93.20;;;;;;5009862;28;20173;-78
2021/03/20 13:15:19;;;;;;;4.00;3.60;;;4.60;93.60;;;;;;5001765;28;20243;-79
2021/03/20 13:17:45;;;;;;;3.63;3.43;;;4.60;93.40;;;;;;4994940;28;20752;-79
2021/03/20 13:20:12;;;;;;;3.87;3.53;;;4.60;93.60;;;;;;5002478;28;20251;-78
2021/03/20 13:22:38;;;;;;;3.50;3.20;;;4.70;94.50;;;;;;5000326;28;20224;-79
2021/03/20 13:25:06;;;;;;;5.23;3.87;;;4.80;93.90;;;;;;5011752;28;20189;-79
2021/03/20 13:27:31;;;;;;;4.17;3.40;;;4.80;94.20;;;;;;5001290;28;20217;-77
2021/03/20 13:30:00;;;;;;;3.97;3.60;;;4.90;94.00;;;;;;5006993;28;20196;-78
2021/03/20 13:32:27;;;;;;;4.47;3.90;;;5.00;93.30;;;;;;5008219;28;20197;-78
2021/03/20 13:34:58;;;;;;;4.20;3.77;;;5.00;93.60;;;;;;4999543;28;20186;-77
2021/03/20 13:37:25;;;;;;;7.40;4.20;;;5.10;93.80;;;;;;5003211;28;20194;-78
2021/03/20 13:39:50;;;;;;;5.23;4.30;;;5.10;93.60;;;;;;5003560;28;20211;-85
2021/03/20 13:42:16;;;;;;;4.27;3.87;;;5.20;93.00;;;;;;5003033;28;20876;-80
2021/03/20 13:44:42;;;;;;;3.50;3.27;;;5.30;93.10;;;;;;5002141;28;20181;-82
2021/03/20 13:47:07;;;;;;;5.60;4.80;;;5.30;93.40;;;;;;4998944;28;20968;-82